Time;durP1;ratioP1;P1;durP2;ratioP2;P2;SDS_P1;SDS_P2;PMS_P1;PMS_P2;Temp;Humidity;BMP_temperature;BMP_pressure;BME280_temperature;BME280_humidity;BME280_pressure;Samples;Min_cycle;Max_cycle;Signal;HPM_P1;HPM_P2
2022/04/26 03:39:11;;;;;;;7.80;7.10;;;;;;;;;;6157621;28;20226;-69
2022/04/26 03:42:31;;;;;;;8.47;7.77;;;;;;;;;;6180361;28;20328;-70
2022/04/26 03:45:52;;;;;;;7.93;7.13;;;;;;;;;;6154827;28;20246;-70
2022/04/26 03:49:14;;;;;;;9.17;7.47;;;;;;;;;;6181412;28;20230;-70
2022/04/26 03:52:35;;;;;;;8.80;7.90;;;;;;;;;;6151900;28;20230;-70
2022/04/26 03:55:55;;;;;;;8.20;7.50;;;;;;;;;;6173888;28;20253;-68
2022/04/26 03:59:16;;;;;;;9.30;8.40;;;;;;;;;;6150373;28;20225;-69
2022/04/26 04:02:37;;;;;;;9.10;8.33;;;;;;;;;;6181258;28;20234;-69
2022/04/26 04:05:59;;;;;;;11.83;10.77;;;;;;;;;;6177776;28;21986;-70
2022/04/26 04:09:19;;;;;;;20.00;18.27;;;;;;;;;;6180747;28;20230;-69
2022/04/26 04:12:40;;;;;;;20.20;18.43;;;;;;;;;;6151684;28;20249;-70
2022/04/26 04:16:00;;;;;;;40.60;36.57;;;;;;;;;;6176244;28;20504;-70
2022/04/26 04:19:21;;;;;;;15.77;14.33;;;;;;;;;;6162578;28;20234;-68
2022/04/26 04:22:44;;;;;;;9.40;8.40;;;;;;;;;;6178859;28;20230;-70
2022/04/26 04:26:05;;;;;;;8.57;7.77;;;;;;;;;;6175799;28;20245;-69
2022/04/26 04:29:26;;;;;;;19.30;17.60;;;;;;;;;;6169415;28;20234;-69
2022/04/26 04:32:46;;;;;;;14.40;13.10;;;;;;;;;;6173557;28;20238;-68
2022/04/26 04:36:07;;;;;;;7.50;6.80;;;;;;;;;;6172165;28;20463;-69
2022/04/26 04:39:28;;;;;;;8.80;7.90;;;;;;;;;;6151331;28;20230;-70
2022/04/26 04:42:49;;;;;;;8.30;7.50;;;;;;;;;;6174706;28;20225;-69
2022/04/26 04:46:10;;;;;;;8.50;7.63;;;;;;;;;;6172239;28;20573;-70
2022/04/26 04:49:30;;;;;;;8.53;7.67;;;;;;;;;;6167962;28;20242;-70
2022/04/26 04:52:52;;;;;;;9.10;8.30;;;;;;;;;;6173611;28;20230;-70
2022/04/26 04:56:14;;;;;;;8.77;7.90;;;;;;;;;;6171510;28;20226;-71
2022/04/26 04:59:34;;;;;;;9.40;8.50;;;;;;;;;;6176075;28;20670;-70
2022/04/26 05:02:55;;;;;;;9.63;8.73;;;;;;;;;;6173456;28;20229;-71
2022/04/26 05:06:16;;;;;;;7.63;7.00;;;;;;;;;;6173467;28;20234;-69
2022/04/26 05:09:37;;;;;;;8.83;8.03;;;;;;;;;;6172254;28;20242;-69
2022/04/26 05:12:59;;;;;;;8.53;7.73;;;;;;;;;;6177360;28;20320;-69
2022/04/26 05:16:19;;;;;;;8.77;7.97;;;;;;;;;;6173701;28;20253;-70
2022/04/26 05:19:40;;;;;;;7.50;6.80;;;;;;;;;;6171009;28;21945;-69
2022/04/26 05:26:39;;;;;;;9.83;8.77;;;;;;;;;;6168400;28;20233;-70
2022/04/26 05:30:01;;;;;;;9.33;8.40;;;;;;;;;;6169472;28;21745;-70
2022/04/26 05:33:22;;;;;;;10.07;8.60;;;;;;;;;;6165626;28;20230;-70
2022/04/26 05:36:42;;;;;;;8.67;7.87;;;;;;;;;;6166228;28;20655;-69
2022/04/26 05:40:03;;;;;;;8.60;7.63;;;;;;;;;;6143750;28;20225;-75
2022/04/26 05:43:23;;;;;;;8.87;8.07;;;;;;;;;;6159909;28;20611;-73
2022/04/26 05:46:46;;;;;;;13.77;10.10;;;;;;;;;;6164163;28;20237;-72
2022/04/26 05:50:07;;;;;;;8.73;7.87;;;;;;;;;;6168427;28;20566;-71
2022/04/26 05:53:27;;;;;;;9.57;8.70;;;;;;;;;;6165811;28;20232;-71
2022/04/26 05:56:48;;;;;;;11.07;8.80;;;;;;;;;;6171662;28;20230;-72
2022/04/26 06:00:10;;;;;;;8.37;7.40;;;;;;;;;;6181019;28;20246;-73
2022/04/26 06:03:34;;;;;;;8.80;8.00;;;;;;;;;;6177384;28;20230;-73
2022/04/26 06:06:55;;;;;;;9.00;8.20;;;;;;;;;;6175987;28;20225;-72
2022/04/26 06:10:16;;;;;;;8.37;7.57;;;;;;;;;;6178535;28;20226;-74
2022/04/26 06:13:36;;;;;;;9.27;8.27;;;;;;;;;;6178259;28;20221;-71
2022/04/26 06:16:58;;;;;;;10.17;8.77;;;;;;;;;;6174852;28;20239;-70
2022/04/26 06:20:23;;;;;;;8.07;7.00;;;;;;;;;;6182585;28;20222;-69
2022/04/26 06:23:43;;;;;;;9.67;8.70;;;;;;;;;;6181675;28;20548;-70
2022/04/26 06:27:04;;;;;;;8.30;7.40;;;;;;;;;;6173444;28;20312;-68
2022/04/26 06:30:25;;;;;;;8.70;7.93;;;;;;;;;;6177556;28;20356;-71
2022/04/26 06:33:45;;;;;;;8.97;8.07;;;;;;;;;;6181042;28;20238;-68
2022/04/26 06:37:07;;;;;;;9.03;8.23;;;;;;;;;;6179632;28;20233;-70
2022/04/26 06:40:28;;;;;;;12.50;11.33;;;;;;;;;;6175545;28;20230;-73
2022/04/26 06:43:49;;;;;;;9.53;8.63;;;;;;;;;;6180059;28;20517;-70
2022/04/26 06:47:09;;;;;;;8.70;7.87;;;;;;;;;;6155724;28;20231;-71
2022/04/26 06:50:30;;;;;;;9.03;8.13;;;;;;;;;;6175604;28;20676;-72
2022/04/26 06:53:52;;;;;;;7.37;6.77;;;;;;;;;;6171749;28;20234;-70
2022/04/26 06:57:12;;;;;;;8.53;7.30;;;;;;;;;;6172613;28;20237;-71
2022/04/26 07:00:33;;;;;;;7.77;6.97;;;;;;;;;;6171831;28;20234;-72
2022/04/26 07:03:53;;;;;;;9.53;8.07;;;;;;;;;;6177884;28;20238;-72
2022/04/26 07:07:14;;;;;;;7.23;6.53;;;;;;;;;;6178905;28;20247;-72
2022/04/26 07:10:37;;;;;;;8.77;7.03;;;;;;;;;;6183577;28;20229;-71
2022/04/26 07:13:58;;;;;;;7.83;6.70;;;;;;;;;;6178788;28;20237;-77
2022/04/26 07:17:19;;;;;;;9.43;7.37;;;;;;;;;;6162448;28;20233;-78
2022/04/26 07:20:39;;;;;;;6.87;6.17;;;;;;;;;;6179489;28;20237;-75
2022/04/26 07:24:00;;;;;;;6.43;5.87;;;;;;;;;;6177369;28;20226;-72
2022/04/26 07:27:22;;;;;;;7.10;6.40;;;;;;;;;;6173426;28;20316;-74
2022/04/26 07:30:44;;;;;;;7.43;6.73;;;;;;;;;;6176412;28;20545;-73
2022/04/26 07:34:24;;;;;;;8.13;6.83;;;;;;;;;;6178128;28;20242;-72
2022/04/26 07:37:44;;;;;;;7.03;6.43;;;;;;;;;;6183012;28;20242;-72
2022/04/26 07:41:07;;;;;;;9.53;6.23;;;;;;;;;;6174810;28;20234;-74
2022/04/26 07:44:29;;;;;;;8.23;7.53;;;;;;;;;;6173804;28;20246;-71
2022/04/26 07:47:51;;;;;;;9.80;8.67;;;;;;;;;;6161217;28;20237;-72
2022/04/26 07:51:11;;;;;;;7.60;6.90;;;;;;;;;;6184182;28;20238;-74
2022/04/26 07:54:32;;;;;;;8.10;7.10;;;;;;;;;;6174664;28;20242;-75
2022/04/26 07:57:53;;;;;;;8.07;7.27;;;;;;;;;;6184531;28;20328;-72
2022/04/26 08:01:15;;;;;;;7.70;6.87;;;;;;;;;;6180636;28;20235;-73
2022/04/26 08:04:35;;;;;;;6.73;6.10;;;;;;;;;;6178904;28;20221;-74
2022/04/26 08:07:56;;;;;;;8.63;6.83;;;;;;;;;;6184030;28;20238;-68
2022/04/26 08:11:16;;;;;;;6.93;6.33;;;;;;;;;;6180151;28;20837;-68
2022/04/26 08:14:37;;;;;;;6.80;6.20;;;;;;;;;;6173860;28;20230;-72
2022/04/26 08:17:59;;;;;;;6.63;5.77;;;;;;;;;;6183946;28;20230;-70
2022/04/26 08:21:20;;;;;;;6.50;5.90;;;;;;;;;;6182956;28;20226;-74
2022/04/26 08:28:19;;;;;;;6.63;6.03;;;;;;;;;;6181737;28;20222;-70
2022/04/26 08:31:39;;;;;;;6.93;5.73;;;;;;;;;;6183036;28;20767;-71
2022/04/26 08:35:01;;;;;;;5.67;5.17;;;;;;;;;;6181444;28;20244;-72
2022/04/26 08:38:22;;;;;;;6.20;5.60;;;;;;;;;;6185521;28;20226;-73
2022/04/26 08:41:43;;;;;;;5.50;5.03;;;;;;;;;;6187345;28;20230;-72
2022/04/26 08:45:05;;;;;;;6.20;5.50;;;;;;;;;;6180536;28;20230;-74
2022/04/26 08:52:06;;;;;;;5.70;5.13;;;;;;;;;;6185744;28;20246;-73
2022/04/26 08:55:26;;;;;;;5.57;4.87;;;;;;;;;;6182636;28;20241;-72
2022/04/26 08:58:47;;;;;;;5.77;5.17;;;;;;;;;;6182584;28;20396;-73
2022/04/26 09:02:14;;;;;;;6.80;6.20;;;;;;;;;;6183766;28;20225;-72
2022/04/26 09:05:36;;;;;;;6.70;5.20;;;;;;;;;;6184171;28;20615;-71
2022/04/26 09:09:06;;;;;;;6.63;5.63;;;;;;;;;;6176988;28;21149;-73
2022/04/26 09:12:27;;;;;;;10.07;9.07;;;;;;;;;;6180478;28;20237;-70
2022/04/26 09:15:48;;;;;;;7.83;7.13;;;;;;;;;;6179517;28;20226;-73
2022/04/26 09:19:09;;;;;;;5.87;5.20;;;;;;;;;;6173128;28;20258;-72
2022/04/26 09:22:30;;;;;;;6.17;5.40;;;;;;;;;;6181519;28;20607;-73
2022/04/26 09:25:56;;;;;;;4.77;4.37;;;;;;;;;;6179986;28;20237;-73
2022/04/26 09:29:18;;;;;;;4.57;4.17;;;;;;;;;;6180986;28;20515;-73
2022/04/26 09:32:44;;;;;;;6.07;5.47;;;;;;;;;;6172099;28;20627;-73
2022/04/26 09:36:06;;;;;;;6.53;5.57;;;;;;;;;;6183296;28;20229;-74
2022/04/26 09:39:27;;;;;;;4.43;4.03;;;;;;;;;;6177399;28;21044;-71
2022/04/26 09:42:50;;;;;;;5.00;4.57;;;;;;;;;;6179143;28;20233;-73
2022/04/26 09:46:10;;;;;;;4.43;4.03;;;;;;;;;;6177748;28;20226;-75
2022/04/26 09:49:35;;;;;;;5.27;4.87;;;;;;;;;;6183041;28;20222;-73
2022/04/26 09:52:56;;;;;;;6.37;4.10;;;;;;;;;;6181885;28;20230;-70
2022/04/26 09:56:19;;;;;;;4.37;3.97;;;;;;;;;;6181607;28;20252;-71
2022/04/26 09:59:44;;;;;;;5.23;4.00;;;;;;;;;;6181787;28;20238;-72
2022/04/26 10:03:08;;;;;;;7.40;5.37;;;;;;;;;;6180566;28;20257;-73
2022/04/26 10:06:28;;;;;;;6.57;5.67;;;;;;;;;;6176434;28;20230;-72
2022/04/26 10:09:49;;;;;;;10.17;9.37;;;;;;;;;;6178262;28;20254;-71
2022/04/26 10:16:50;;;;;;;6.70;5.00;;;;;;;;;;6182400;28;20611;-70
2022/04/26 10:20:31;;;;;;;4.37;3.97;;;;;;;;;;6173967;28;20218;-71
2022/04/26 10:24:10;;;;;;;6.77;5.60;;;;;;;;;;6181080;28;20238;-71
2022/04/26 10:27:30;;;;;;;7.67;4.93;;;;;;;;;;6166370;28;20317;-74
2022/04/26 10:30:51;;;;;;;5.03;4.53;;;;;;;;;;6184845;28;20253;-74
2022/04/26 10:34:28;;;;;;;4.60;3.83;;;;;;;;;;6177669;28;20324;-71
2022/04/26 10:38:08;;;;;;;4.37;4.07;;;;;;;;;;6182695;28;20752;-73
2022/04/26 10:41:34;;;;;;;4.93;4.47;;;;;;;;;;6182922;28;20229;-73
2022/04/26 10:44:59;;;;;;;4.70;4.30;;;;;;;;;;6183282;28;20242;-73
2022/04/26 10:48:26;;;;;;;8.17;4.00;;;;;;;;;;6177594;28;20521;-74
2022/04/26 10:51:48;;;;;;;7.07;6.40;;;;;;;;;;6180730;28;20238;-73
2022/04/26 10:55:10;;;;;;;5.20;4.80;;;;;;;;;;6175939;28;20226;-72
2022/04/26 10:58:30;;;;;;;4.95;4.55;;;;;;;;;;6181542;28;21597;-74
2022/04/26 11:01:51;;;;;;;5.72;5.03;;;;;;;;;;6181108;28;20229;-72
2022/04/26 11:05:12;;;;;;;4.73;4.33;;;;;;;;;;6180975;28;20229;-73
2022/04/26 11:08:34;;;;;;;5.20;4.30;;;;;;;;;;6176514;28;20218;-73
2022/04/26 11:11:55;;;;;;;6.95;4.47;;;;;;;;;;6163834;28;20584;-70
2022/04/26 11:15:19;;;;;;;5.00;4.60;;;;;;;;;;6175715;28;20257;-73
2022/04/26 11:18:42;;;;;;;5.00;4.60;;;;;;;;;;6172428;28;20754;-71
2022/04/26 11:22:06;;;;;;;7.78;5.43;;;;;;;;;;6172588;28;20238;-74
2022/04/26 11:29:20;;;;;;;10.07;8.77;;;;;;;;;;6173319;28;20237;-76
2022/04/26 11:32:42;;;;;;;4.72;4.25;;;;;;;;;;6176070;28;20237;-74
2022/04/26 11:36:04;;;;;;;5.18;4.72;;;;;;;;;;6178442;28;20574;-74
2022/04/26 11:39:25;;;;;;;4.28;3.95;;;;;;;;;;6170541;28;20690;-72
2022/04/26 11:42:47;;;;;;;5.18;4.75;;;;;;;;;;6173779;28;20605;-71
2022/04/26 11:46:11;;;;;;;4.88;4.38;;;;;;;;;;6174302;28;20237;-70
2022/04/26 11:49:39;;;;;;;5.50;4.50;;;;;;;;;;6177805;28;20241;-72
2022/04/26 11:53:00;;;;;;;5.13;4.63;;;;;;;;;;6181437;28;20241;-72
2022/04/26 11:56:21;;;;;;;5.35;4.85;;;;;;;;;;6183862;28;20229;-70
2022/04/26 11:59:43;;;;;;;4.60;4.20;;;;;;;;;;6180015;28;20250;-71
2022/04/26 12:03:04;;;;;;;4.80;4.40;;;;;;;;;;6180317;28;20222;-73
2022/04/26 12:06:26;;;;;;;8.43;7.75;;;;;;;;;;6177778;28;20503;-72
2022/04/26 12:09:47;;;;;;;7.25;6.65;;;;;;;;;;6184663;28;20230;-71
2022/04/26 12:13:07;;;;;;;5.22;3.72;;;;;;;;;;6172951;28;20316;-70
2022/04/26 12:16:30;;;;;;;3.83;3.60;;;;;;;;;;6177606;28;21113;-69
2022/04/26 12:19:51;;;;;;;4.13;3.72;;;;;;;;;;6180706;28;21108;-69
2022/04/26 12:23:20;;;;;;;4.55;4.07;;;;;;;;;;6178731;28;20238;-68
2022/04/26 12:26:51;;;;;;;3.42;3.13;;;;;;;;;;6176227;28;20233;-71
2022/04/26 12:30:12;;;;;;;3.78;3.50;;;;;;;;;;6177379;28;20233;-69
2022/04/26 12:33:37;;;;;;;4.13;3.58;;;;;;;;;;6177973;28;20306;-70
2022/04/26 12:36:58;;;;;;;4.22;3.83;;;;;;;;;;6182348;28;20241;-69
2022/04/26 12:40:19;;;;;;;3.88;3.58;;;;;;;;;;6183271;28;20252;-72
2022/04/26 12:43:40;;;;;;;5.55;5.15;;;;;;;;;;6182780;28;20222;-68
2022/04/26 12:50:40;;;;;;;4.03;3.72;;;;;;;;;;6176957;28;20222;-68
2022/04/26 12:54:08;;;;;;;14.60;4.65;;;;;;;;;;6160514;28;20957;-70
2022/04/26 12:57:28;;;;;;;6.85;4.25;;;;;;;;;;6178930;28;20233;-72
2022/04/26 13:00:50;;;;;;;4.13;3.83;;;;;;;;;;6180748;28;22462;-67
2022/04/26 13:04:11;;;;;;;5.65;4.00;;;;;;;;;;6177215;28;20797;-70
2022/04/26 13:07:33;;;;;;;5.13;3.90;;;;;;;;;;6173276;28;20233;-69
2022/04/26 13:10:54;;;;;;;3.85;3.33;;;;;;;;;;6179366;28;20339;-68
2022/04/26 13:14:15;;;;;;;4.63;3.72;;;;;;;;;;6175370;28;20989;-68
2022/04/26 13:17:36;;;;;;;4.07;3.70;;;;;;;;;;6172765;28;20229;-70
2022/04/26 13:20:57;;;;;;;6.00;4.00;;;;;;;;;;6176297;28;20242;-68
2022/04/26 13:24:25;;;;;;;5.32;4.75;;;;;;;;;;6173626;28;20244;-68
2022/04/26 13:27:47;;;;;;;5.30;4.90;;;;;;;;;;6177438;28;20232;-69
2022/04/26 13:31:08;;;;;;;6.07;5.32;;;;;;;;;;6175770;28;20246;-69
2022/04/26 13:34:28;;;;;;;4.65;4.25;;;;;;;;;;6176766;28;20230;-68
2022/04/26 13:37:50;;;;;;;3.85;3.47;;;;;;;;;;6178560;28;20269;-68
2022/04/26 13:41:12;;;;;;;3.83;3.45;;;;;;;;;;6173062;28;20265;-70
2022/04/26 13:44:33;;;;;;;4.28;3.90;;;;;;;;;;6167918;28;20225;-68
2022/04/26 13:47:54;;;;;;;5.28;3.97;;;;;;;;;;6178119;28;20259;-69
2022/04/26 13:51:14;;;;;;;3.90;3.60;;;;;;;;;;6179421;28;20348;-68
2022/04/26 13:54:35;;;;;;;4.32;3.97;;;;;;;;;;6177363;28;22097;-67
2022/04/26 13:57:57;;;;;;;4.18;3.78;;;;;;;;;;6178269;28;20636;-68
2022/04/26 14:01:17;;;;;;;11.60;4.65;;;;;;;;;;6179439;28;21963;-69
2022/04/26 14:04:38;;;;;;;4.15;3.75;;;;;;;;;;6180700;28;20515;-68
2022/04/26 14:07:59;;;;;;;5.55;4.80;;;;;;;;;;6181070;28;20230;-66
2022/04/26 14:11:21;;;;;;;5.00;4.20;;;;;;;;;;6179826;28;20608;-68
2022/04/26 14:22:04;;;;;;;9.10;4.38;;;;;;;;;;6130446;28;20229;-69
2022/04/26 14:25:25;;;;;;;4.40;4.00;;;;;;;;;;6177080;28;20512;-70
2022/04/26 14:28:45;;;;;;;4.90;3.15;;;;;;;;;;6176508;28;20309;-69
2022/04/26 14:32:08;;;;;;;4.18;3.60;;;;;;;;;;6180809;28;20229;-68
2022/04/26 14:35:29;;;;;;;5.70;5.18;;;;;;;;;;6174938;28;20230;-70
2022/04/26 14:38:49;;;;;;;4.53;4.13;;;;;;;;;;6177584;28;20242;-68
2022/04/26 14:42:10;;;;;;;4.80;4.40;;;;;;;;;;6173431;28;20233;-68
2022/04/26 14:45:32;;;;;;;4.78;4.38;;;;;;;;;;6171152;28;20719;-68
2022/04/26 14:48:54;;;;;;;4.85;4.32;;;;;;;;;;6177893;28;20655;-68
2022/04/26 14:52:21;;;;;;;5.93;5.43;;;;;;;;;;6171325;28;20226;-69
2022/04/26 14:55:42;;;;;;;5.38;4.97;;;;;;;;;;6171435;28;20670;-68
2022/04/26 14:59:03;;;;;;;5.28;4.82;;;;;;;;;;6174329;28;20230;-70
2022/04/26 15:02:23;;;;;;;5.45;4.95;;;;;;;;;;6166631;28;20545;-70
2022/04/26 15:05:45;;;;;;;6.85;4.20;;;;;;;;;;6175938;28;20238;-70
2022/04/26 15:16:42;;;;;;;4.40;4.00;;;;;;;;;;6186782;28;20230;-69
2022/04/26 15:20:03;;;;;;;5.15;4.25;;;;;;;;;;6178438;28;20221;-71
2022/04/26 15:23:25;;;;;;;3.45;3.20;;;;;;;;;;6180691;28;20720;-70
2022/04/26 15:26:46;;;;;;;4.32;3.72;;;;;;;;;;6179573;28;20237;-67
2022/04/26 15:30:08;;;;;;;5.05;3.50;;;;;;;;;;6186431;28;20241;-67
2022/04/26 15:33:28;;;;;;;5.25;2.88;;;;;;;;;;6180896;28;20233;-69
2022/04/26 15:36:49;;;;;;;3.15;2.85;;;;;;;;;;6186627;28;20230;-70
2022/04/26 15:40:12;;;;;;;4.40;3.38;;;;;;;;;;6153067;28;20234;-70
2022/04/26 15:43:33;;;;;;;2.85;2.67;;;;;;;;;;6175986;28;20773;-70
2022/04/26 15:46:56;;;;;;;3.80;3.40;;;;;;;;;;6182600;28;20234;-70
2022/04/26 15:50:17;;;;;;;3.33;3.03;;;;;;;;;;6180330;28;21161;-72
2022/04/26 15:53:37;;;;;;;4.10;3.38;;;;;;;;;;6181122;28;20275;-68
2022/04/26 15:56:59;;;;;;;3.28;2.97;;;;;;;;;;6181007;28;20234;-69
2022/04/26 16:00:20;;;;;;;3.63;3.33;;;;;;;;;;6181076;28;20233;-69
2022/04/26 16:03:41;;;;;;;5.35;3.97;;;;;;;;;;6181966;28;20555;-69
2022/04/26 16:07:01;;;;;;;3.92;3.25;;;;;;;;;;6176131;28;20226;-71
2022/04/26 16:21:17;;;;;;;4.07;3.08;;;;;;;;;;6178373;28;20222;-69
2022/04/26 16:24:39;;;;;;;3.53;2.90;;;;;;;;;;6180129;28;20226;-71
2022/04/26 16:28:01;;;;;;;4.07;3.38;;;;;;;;;;6172563;28;20257;-69
2022/04/26 16:31:28;;;;;;;4.18;2.92;;;;;;;;;;6178668;28;20234;-69
2022/04/26 16:34:48;;;;;;;3.70;2.60;;;;;;;;;;6178389;28;20241;-69
2022/04/26 16:38:09;;;;;;;4.20;2.10;;;;;;;;;;6181628;28;20238;-69
2022/04/26 16:41:30;;;;;;;3.05;2.03;;;;;;;;;;6179348;28;20226;-75
2022/04/26 16:44:50;;;;;;;2.13;2.00;;;;;;;;;;6179893;28;20246;-73
2022/04/26 16:48:14;;;;;;;2.47;2.28;;;;;;;;;;6175736;28;20253;-74
2022/04/26 16:51:35;;;;;;;3.22;2.60;;;;;;;;;;6180876;28;20238;-73
2022/04/26 16:54:56;;;;;;;3.33;3.03;;;;;;;;;;6174954;28;20237;-73
2022/04/26 16:58:18;;;;;;;5.25;4.47;;;;;;;;;;6177145;28;20595;-74
2022/04/26 17:01:38;;;;;;;4.93;4.43;;;;;;;;;;6174528;28;20707;-75
2022/04/26 17:05:00;;;;;;;5.80;3.95;;;;;;;;;;6173677;28;20512;-73
2022/04/26 17:08:21;;;;;;;6.32;4.25;;;;;;;;;;6177561;28;20225;-73
2022/04/26 17:11:44;;;;;;;4.60;4.05;;;;;;;;;;6168282;28;20931;-72
2022/04/26 17:15:06;;;;;;;4.65;3.90;;;;;;;;;;6176048;28;21097;-71
2022/04/26 17:18:26;;;;;;;4.43;4.13;;;;;;;;;;6178963;28;20233;-74
2022/04/26 17:21:49;;;;;;;4.88;4.40;;;;;;;;;;6156435;28;20257;-73
2022/04/26 17:25:15;;;;;;;7.15;5.30;;;;;;;;;;6169705;28;20242;-73
2022/04/26 17:28:37;;;;;;;5.47;4.43;;;;;;;;;;6171810;28;20234;-76
2022/04/26 17:31:58;;;;;;;5.13;4.72;;;;;;;;;;6174972;28;20316;-74
2022/04/26 17:35:19;;;;;;;6.45;4.35;;;;;;;;;;6183430;28;20230;-73
2022/04/26 17:38:41;;;;;;;4.97;4.35;;;;;;;;;;6182219;28;20218;-72
2022/04/26 17:42:01;;;;;;;9.05;4.60;;;;;;;;;;6181326;28;20702;-72
2022/04/26 17:45:22;;;;;;;3.95;3.45;;;;;;;;;;6185964;28;20563;-72
2022/04/26 17:48:43;;;;;;;4.80;3.10;;;;;;;;;;6180240;28;20268;-70
2022/04/26 17:52:03;;;;;;;4.30;3.88;;;;;;;;;;6183162;28;20254;-73
2022/04/26 17:59:03;;;;;;;3.75;3.45;;;;;;;;;;6181909;28;20691;-71
2022/04/26 18:02:24;;;;;;;7.50;4.53;;;;;;;;;;6177919;28;20221;-71
2022/04/26 18:05:45;;;;;;;4.30;3.90;;;;;;;;;;6179270;28;20238;-71
2022/04/26 18:09:05;;;;;;;4.00;3.57;;;;;;;;;;6178131;28;20229;-71
2022/04/26 18:12:27;;;;;;;5.00;3.53;;;;;;;;;;6179113;28;20233;-71
2022/04/26 18:15:50;;;;;;;5.80;4.47;;;;;;;;;;6181572;28;20230;-71
2022/04/26 18:19:11;;;;;;;5.80;3.53;;;;;;;;;;6181903;28;20241;-73
2022/04/26 18:22:31;;;;;;;5.53;3.70;;;;;;;;;;6178782;28;20268;-71
2022/04/26 18:29:33;;;;;;;6.27;4.83;;;;;;;;;;6179712;28;20253;-72
2022/04/26 18:32:53;;;;;;;6.40;4.73;;;;;;;;;;6180100;28;20233;-70
2022/04/26 18:36:16;;;;;;;9.03;7.47;;;;;;;;;;6165270;28;20253;-73
2022/04/26 18:39:36;;;;;;;6.37;4.80;;;;;;;;;;6175208;28;20226;-74
2022/04/26 18:42:57;;;;;;;5.70;4.53;;;;;;;;;;6174320;28;20233;-72
2022/04/26 18:46:20;;;;;;;5.43;4.93;;;;;;;;;;6174790;28;20229;-70
2022/04/26 18:49:41;;;;;;;6.10;5.50;;;;;;;;;;6178718;28;20706;-69
2022/04/26 18:53:02;;;;;;;6.70;6.03;;;;;;;;;;6178926;28;20233;-73
2022/04/26 18:56:23;;;;;;;6.17;5.67;;;;;;;;;;6177058;28;20230;-70
2022/04/26 18:59:43;;;;;;;6.70;5.57;;;;;;;;;;6177847;28;20238;-72
2022/04/26 19:03:05;;;;;;;6.40;5.83;;;;;;;;;;6173238;28;20225;-74
2022/04/26 19:06:26;;;;;;;8.30;7.47;;;;;;;;;;6178297;28;20288;-71
2022/04/26 19:13:21;;;;;;;5.03;4.60;;;;;;;;;;6167922;28;20714;-72
2022/04/26 19:16:41;;;;;;;5.77;5.17;;;;;;;;;;6178737;28;20225;-70
2022/04/26 19:20:04;;;;;;;5.67;5.17;;;;;;;;;;6159717;28;20682;-71
2022/04/26 19:23:25;;;;;;;5.43;4.93;;;;;;;;;;6178461;28;20254;-73
2022/04/26 19:26:46;;;;;;;5.40;4.90;;;;;;;;;;6175742;28;20242;-68
2022/04/26 19:30:07;;;;;;;5.47;4.97;;;;;;;;;;6179844;28;20245;-70
2022/04/26 19:33:27;;;;;;;6.87;5.40;;;;;;;;;;6176793;28;20242;-72
2022/04/26 19:36:49;;;;;;;4.80;4.40;;;;;;;;;;6177157;28;20328;-72
2022/04/26 19:40:10;;;;;;;8.43;5.80;;;;;;;;;;6179437;28;20226;-71
2022/04/26 19:43:31;;;;;;;7.37;5.60;;;;;;;;;;6178979;28;20230;-71
2022/04/26 19:46:55;;;;;;;5.90;5.30;;;;;;;;;;6178518;28;20241;-73
2022/04/26 19:53:55;;;;;;;7.40;5.50;;;;;;;;;;6163620;28;20257;-72
2022/04/26 19:57:16;;;;;;;6.20;5.60;;;;;;;;;;6164963;28;20217;-72
2022/04/26 20:00:36;;;;;;;6.50;6.00;;;;;;;;;;6173263;28;20306;-72
2022/04/26 20:03:57;;;;;;;7.07;6.20;;;;;;;;;;6178242;28;20281;-72
2022/04/26 20:07:19;;;;;;;7.30;5.63;;;;;;;;;;6181197;28;20249;-69
2022/04/26 20:10:41;;;;;;;7.40;6.17;;;;;;;;;;6177495;28;20234;-69
2022/04/26 20:14:01;;;;;;;7.13;6.53;;;;;;;;;;6176130;28;20234;-70
2022/04/26 20:17:22;;;;;;;6.63;5.67;;;;;;;;;;6165320;28;20242;-68
2022/04/26 20:20:42;;;;;;;6.57;5.97;;;;;;;;;;6178330;28;20250;-68
2022/04/26 20:24:03;;;;;;;6.97;6.27;;;;;;;;;;6181012;28;20226;-70
2022/04/26 20:31:04;;;;;;;6.77;6.27;;;;;;;;;;6179278;28;20237;-69
2022/04/26 20:34:24;;;;;;;7.60;5.50;;;;;;;;;;6175004;28;20257;-68
2022/04/26 20:37:45;;;;;;;5.53;5.03;;;;;;;;;;6185214;28;20234;-69
2022/04/26 20:41:05;;;;;;;6.53;5.83;;;;;;;;;;6174536;28;20226;-69
2022/04/26 20:44:27;;;;;;;6.13;5.63;;;;;;;;;;6174803;28;20222;-69
2022/04/26 20:47:48;;;;;;;7.47;6.33;;;;;;;;;;6181247;28;20514;-68
2022/04/26 20:51:09;;;;;;;6.50;5.73;;;;;;;;;;6177116;28;20821;-69
2022/04/26 20:54:29;;;;;;;6.57;6.00;;;;;;;;;;6170893;28;20245;-70
2022/04/26 20:57:50;;;;;;;9.90;8.10;;;;;;;;;;6174950;28;20552;-69
2022/04/26 21:01:12;;;;;;;13.20;8.80;;;;;;;;;;6174219;28;20226;-70
2022/04/26 21:04:32;;;;;;;8.43;6.70;;;;;;;;;;6171619;28;20245;-68
2022/04/26 21:07:53;;;;;;;8.13;5.80;;;;;;;;;;6177009;28;20238;-68
2022/04/26 21:11:15;;;;;;;7.37;6.23;;;;;;;;;;6172826;28;20253;-69
2022/04/26 21:14:36;;;;;;;6.87;6.27;;;;;;;;;;6177761;28;20238;-68
2022/04/26 21:17:59;;;;;;;6.20;5.60;;;;;;;;;;6176370;28;20656;-69
2022/04/26 21:21:20;;;;;;;7.03;5.23;;;;;;;;;;6178799;28;20245;-68
2022/04/26 21:24:40;;;;;;;6.20;4.87;;;;;;;;;;6170195;28;20748;-69
2022/04/26 21:28:01;;;;;;;6.70;4.83;;;;;;;;;;6180161;28;20214;-68
2022/04/26 21:31:22;;;;;;;6.87;4.37;;;;;;;;;;6176637;28;20257;-69
2022/04/26 21:34:43;;;;;;;5.97;3.93;;;;;;;;;;6171863;28;20261;-68
2022/04/26 21:38:04;;;;;;;5.80;3.63;;;;;;;;;;6170328;28;20329;-68
2022/04/26 21:41:24;;;;;;;4.93;4.50;;;;;;;;;;6171081;28;20320;-69
2022/04/26 21:44:45;;;;;;;5.07;3.60;;;;;;;;;;6162503;28;20265;-69
2022/04/26 21:48:06;;;;;;;4.63;3.13;;;;;;;;;;6175160;28;20229;-68
2022/04/26 21:51:34;;;;;;;3.90;3.50;;;;;;;;;;6175203;28;20230;-69
2022/04/26 21:54:55;;;;;;;7.27;4.30;;;;;;;;;;6171995;28;20245;-68
2022/04/26 21:58:16;;;;;;;5.27;3.73;;;;;;;;;;6175893;28;20229;-69
2022/04/26 22:01:36;;;;;;;3.43;3.10;;;;;;;;;;6148023;28;20964;-69
2022/04/26 22:04:58;;;;;;;5.40;3.90;;;;;;;;;;6174936;28;20238;-68
2022/04/26 22:08:20;;;;;;;5.77;3.73;;;;;;;;;;6172074;28;20547;-69
2022/04/26 22:11:40;;;;;;;5.63;3.43;;;;;;;;;;6169529;28;20352;-69
2022/04/26 22:15:01;;;;;;;6.03;4.03;;;;;;;;;;6168394;28;20242;-69
2022/04/26 22:18:22;;;;;;;6.53;4.23;;;;;;;;;;6165597;28;20234;-69
2022/04/26 22:21:42;;;;;;;7.07;3.87;;;;;;;;;;6164037;28;20817;-70
2022/04/26 22:25:04;;;;;;;9.13;4.23;;;;;;;;;;6158525;28;20599;-69
2022/04/26 22:28:25;;;;;;;6.27;4.20;;;;;;;;;;6157648;28;20525;-70
2022/04/26 22:31:45;;;;;;;4.27;3.30;;;;;;;;;;6158152;28;20229;-70
2022/04/26 22:35:06;;;;;;;6.87;3.73;;;;;;;;;;6159428;28;20253;-68
2022/04/26 22:38:27;;;;;;;8.93;3.73;;;;;;;;;;6169758;28;20577;-69
2022/04/26 22:41:49;;;;;;;5.30;4.37;;;;;;;;;;6169795;28;20230;-70
2022/04/26 22:45:10;;;;;;;5.77;4.43;;;;;;;;;;6167184;28;20238;-69
2022/04/26 22:48:32;;;;;;;6.20;4.10;;;;;;;;;;6176214;28;20226;-70
2022/04/26 22:51:52;;;;;;;6.83;4.70;;;;;;;;;;6161183;28;20234;-69
2022/04/26 22:55:13;;;;;;;7.47;3.87;;;;;;;;;;6175408;28;20238;-70
2022/04/26 22:58:35;;;;;;;6.10;3.77;;;;;;;;;;6172080;28;20258;-70
2022/04/26 23:01:55;;;;;;;6.20;4.13;;;;;;;;;;6172194;28;20245;-70
2022/04/26 23:05:16;;;;;;;7.97;4.37;;;;;;;;;;6172881;28;20237;-68
2022/04/26 23:08:38;;;;;;;4.77;4.10;;;;;;;;;;6172782;28;20234;-69
2022/04/26 23:11:59;;;;;;;7.20;4.10;;;;;;;;;;6173561;28;20251;-69
2022/04/26 23:15:21;;;;;;;4.77;3.90;;;;;;;;;;6169629;28;20320;-69
2022/04/26 23:18:41;;;;;;;9.07;4.77;;;;;;;;;;6175350;28;20326;-69
2022/04/26 23:22:02;;;;;;;6.07;4.37;;;;;;;;;;6173965;28;20326;-70
2022/04/26 23:25:22;;;;;;;5.23;3.33;;;;;;;;;;6172353;28;20272;-70
2022/04/26 23:28:43;;;;;;;6.40;3.60;;;;;;;;;;6176450;28;20238;-69
2022/04/26 23:32:09;;;;;;;6.63;4.60;;;;;;;;;;6174084;28;20238;-70
2022/04/26 23:35:36;;;;;;;6.03;4.37;;;;;;;;;;6176471;28;20253;-71
2022/04/26 23:38:56;;;;;;;6.80;4.13;;;;;;;;;;6153812;28;20516;-69
2022/04/26 23:42:18;;;;;;;7.40;4.03;;;;;;;;;;6182227;28;20253;-69
2022/04/26 23:45:39;;;;;;;8.43;4.43;;;;;;;;;;6170367;28;20234;-70
2022/04/26 23:49:01;;;;;;;6.57;4.43;;;;;;;;;;6159802;28;20234;-69
2022/04/26 23:55:59;;;;;;;9.10;4.00;;;;;;;;;;6176167;28;20234;-70
2022/04/26 23:59:20;;;;;;;4.63;4.23;;;;;;;;;;6174716;28;20222;-70
